sensor_id;sensor_type;location;lat;lon;timestamp;P1;durP1;ratioP1;P2;durP2;ratioP2
54841;SDS011;40741;45.002;7.536;2024-03-07T00:01:38;10.32;;;5.47;;
54841;SDS011;40741;45.002;7.536;2024-03-07T00:04:04;8.10;;;5.00;;
54841;SDS011;40741;45.002;7.536;2024-03-07T00:06:30;9.15;;;4.95;;
54841;SDS011;40741;45.002;7.536;2024-03-07T00:08:56;9.02;;;5.82;;
54841;SDS011;40741;45.002;7.536;2024-03-07T00:11:22;6.75;;;4.65;;
54841;SDS011;40741;45.002;7.536;2024-03-07T00:13:48;11.07;;;5.63;;
54841;SDS011;40741;45.002;7.536;2024-03-07T00:16:14;7.93;;;4.45;;
54841;SDS011;40741;45.002;7.536;2024-03-07T00:18:40;8.48;;;5.13;;
54841;SDS011;40741;45.002;7.536;2024-03-07T00:21:06;7.75;;;4.97;;
54841;SDS011;40741;45.002;7.536;2024-03-07T00:23:33;9.75;;;6.07;;
54841;SDS011;40741;45.002;7.536;2024-03-07T00:25:59;10.57;;;5.30;;
54841;SDS011;40741;45.002;7.536;2024-03-07T00:28:25;10.75;;;5.30;;
54841;SDS011;40741;45.002;7.536;2024-03-07T00:30:57;10.55;;;6.13;;
54841;SDS011;40741;45.002;7.536;2024-03-07T00:33:23;11.15;;;6.45;;
54841;SDS011;40741;45.002;7.536;2024-03-07T00:35:50;8.55;;;5.70;;
54841;SDS011;40741;45.002;7.536;2024-03-07T00:38:16;8.27;;;5.85;;
54841;SDS011;40741;45.002;7.536;2024-03-07T00:40:42;9.43;;;5.50;;
54841;SDS011;40741;45.002;7.536;2024-03-07T00:43:08;8.38;;;6.05;;
54841;SDS011;40741;45.002;7.536;2024-03-07T00:45:34;9.55;;;6.22;;
54841;SDS011;40741;45.002;7.536;2024-03-07T00:48:00;10.60;;;5.65;;
54841;SDS011;40741;45.002;7.536;2024-03-07T00:50:26;10.50;;;5.75;;
54841;SDS011;40741;45.002;7.536;2024-03-07T00:52:52;7.53;;;5.00;;
54841;SDS011;40741;45.002;7.536;2024-03-07T00:55:18;9.50;;;5.75;;
54841;SDS011;40741;45.002;7.536;2024-03-07T00:57:44;10.10;;;6.07;;
54841;SDS011;40741;45.002;7.536;2024-03-07T01:00:11;9.77;;;6.15;;
54841;SDS011;40741;45.002;7.536;2024-03-07T01:02:41;9.40;;;5.82;;
54841;SDS011;40741;45.002;7.536;2024-03-07T01:05:11;9.45;;;5.72;;
54841;SDS011;40741;45.002;7.536;2024-03-07T01:07:38;11.65;;;5.38;;
54841;SDS011;40741;45.002;7.536;2024-03-07T01:10:05;9.95;;;6.28;;
54841;SDS011;40741;45.002;7.536;2024-03-07T01:12:32;10.35;;;6.15;;
54841;SDS011;40741;45.002;7.536;2024-03-07T01:14:59;7.88;;;5.47;;
54841;SDS011;40741;45.002;7.536;2024-03-07T01:17:29;12.35;;;6.15;;
54841;SDS011;40741;45.002;7.536;2024-03-07T01:19:55;7.82;;;5.70;;
54841;SDS011;40741;45.002;7.536;2024-03-07T01:22:23;10.68;;;6.40;;
54841;SDS011;40741;45.002;7.536;2024-03-07T01:24:49;9.73;;;6.38;;
54841;SDS011;40741;45.002;7.536;2024-03-07T01:27:18;11.93;;;6.32;;
54841;SDS011;40741;45.002;7.536;2024-03-07T01:29:44;8.45;;;5.72;;
54841;SDS011;40741;45.002;7.536;2024-03-07T01:32:10;9.70;;;6.43;;
54841;SDS011;40741;45.002;7.536;2024-03-07T01:34:36;9.82;;;6.35;;
54841;SDS011;40741;45.002;7.536;2024-03-07T01:37:02;9.27;;;5.80;;
54841;SDS011;40741;45.002;7.536;2024-03-07T01:39:28;11.80;;;5.57;;
54841;SDS011;40741;45.002;7.536;2024-03-07T01:41:54;10.45;;;5.70;;
54841;SDS011;40741;45.002;7.536;2024-03-07T01:44:20;8.45;;;5.40;;
54841;SDS011;40741;45.002;7.536;2024-03-07T01:46:46;7.53;;;5.28;;
54841;SDS011;40741;45.002;7.536;2024-03-07T01:49:15;9.07;;;5.13;;
54841;SDS011;40741;45.002;7.536;2024-03-07T01:51:41;8.20;;;5.15;;
54841;SDS011;40741;45.002;7.536;2024-03-07T01:54:08;8.75;;;5.63;;
54841;SDS011;40741;45.002;7.536;2024-03-07T01:56:35;7.80;;;4.95;;
54841;SDS011;40741;45.002;7.536;2024-03-07T01:59:03;7.75;;;5.63;;
54841;SDS011;40741;45.002;7.536;2024-03-07T02:01:30;8.82;;;5.00;;
54841;SDS011;40741;45.002;7.536;2024-03-07T02:03:56;7.85;;;4.93;;
54841;SDS011;40741;45.002;7.536;2024-03-07T02:06:23;7.85;;;4.95;;
54841;SDS011;40741;45.002;7.536;2024-03-07T02:08:49;8.15;;;4.18;;
54841;SDS011;40741;45.002;7.536;2024-03-07T02:11:15;6.13;;;4.00;;
54841;SDS011;40741;45.002;7.536;2024-03-07T02:13:41;10.80;;;4.93;;
54841;SDS011;40741;45.002;7.536;2024-03-07T02:16:07;7.22;;;4.47;;
54841;SDS011;40741;45.002;7.536;2024-03-07T02:18:33;5.88;;;4.13;;
54841;SDS011;40741;45.002;7.536;2024-03-07T02:20:59;7.63;;;4.70;;
54841;SDS011;40741;45.002;7.536;2024-03-07T02:23:25;8.32;;;4.55;;
54841;SDS011;40741;45.002;7.536;2024-03-07T02:25:52;8.63;;;4.60;;
54841;SDS011;40741;45.002;7.536;2024-03-07T02:28:18;6.60;;;4.43;;
54841;SDS011;40741;45.002;7.536;2024-03-07T02:30:44;7.90;;;4.60;;
54841;SDS011;40741;45.002;7.536;2024-03-07T02:33:11;8.80;;;4.63;;
54841;SDS011;40741;45.002;7.536;2024-03-07T02:35:37;6.55;;;4.25;;
54841;SDS011;40741;45.002;7.536;2024-03-07T02:38:03;8.95;;;4.30;;
54841;SDS011;40741;45.002;7.536;2024-03-07T02:40:30;6.35;;;4.47;;
54841;SDS011;40741;45.002;7.536;2024-03-07T02:42:56;5.63;;;4.00;;
54841;SDS011;40741;45.002;7.536;2024-03-07T02:45:22;10.15;;;4.60;;
54841;SDS011;40741;45.002;7.536;2024-03-07T02:47:48;6.75;;;3.30;;
54841;SDS011;40741;45.002;7.536;2024-03-07T02:50:14;4.88;;;3.20;;
54841;SDS011;40741;45.002;7.536;2024-03-07T02:52:40;6.80;;;3.60;;
54841;SDS011;40741;45.002;7.536;2024-03-07T02:55:07;5.40;;;3.20;;
54841;SDS011;40741;45.002;7.536;2024-03-07T02:57:35;5.13;;;3.00;;
54841;SDS011;40741;45.002;7.536;2024-03-07T03:00:02;7.05;;;3.33;;
54841;SDS011;40741;45.002;7.536;2024-03-07T03:02:28;3.70;;;2.03;;
54841;SDS011;40741;45.002;7.536;2024-03-07T03:04:54;5.85;;;3.08;;
54841;SDS011;40741;45.002;7.536;2024-03-07T03:07:20;5.28;;;2.80;;
54841;SDS011;40741;45.002;7.536;2024-03-07T03:09:46;4.47;;;2.53;;
54841;SDS011;40741;45.002;7.536;2024-03-07T03:12:12;5.50;;;2.63;;
54841;SDS011;40741;45.002;7.536;2024-03-07T03:14:38;4.90;;;2.15;;
54841;SDS011;40741;45.002;7.536;2024-03-07T03:17:04;4.07;;;2.33;;
54841;SDS011;40741;45.002;7.536;2024-03-07T03:19:33;5.82;;;2.65;;
54841;SDS011;40741;45.002;7.536;2024-03-07T03:22:01;4.10;;;3.03;;
54841;SDS011;40741;45.002;7.536;2024-03-07T03:24:28;6.60;;;3.30;;
54841;SDS011;40741;45.002;7.536;2024-03-07T03:26:54;6.78;;;2.90;;
54841;SDS011;40741;45.002;7.536;2024-03-07T03:29:20;5.53;;;3.58;;
54841;SDS011;40741;45.002;7.536;2024-03-07T03:31:46;3.88;;;2.70;;
54841;SDS011;40741;45.002;7.536;2024-03-07T03:34:12;5.30;;;2.55;;
54841;SDS011;40741;45.002;7.536;2024-03-07T03:36:38;4.00;;;2.58;;
54841;SDS011;40741;45.002;7.536;2024-03-07T03:39:04;5.78;;;2.72;;
54841;SDS011;40741;45.002;7.536;2024-03-07T03:41:31;7.00;;;3.20;;
54841;SDS011;40741;45.002;7.536;2024-03-07T03:43:57;6.25;;;3.20;;
54841;SDS011;40741;45.002;7.536;2024-03-07T03:46:24;6.00;;;3.33;;
54841;SDS011;40741;45.002;7.536;2024-03-07T03:48:49;5.35;;;3.50;;
54841;SDS011;40741;45.002;7.536;2024-03-07T03:51:15;6.30;;;3.92;;
54841;SDS011;40741;45.002;7.536;2024-03-07T03:53:41;6.05;;;3.83;;
54841;SDS011;40741;45.002;7.536;2024-03-07T03:56:09;5.82;;;3.40;;
54841;SDS011;40741;45.002;7.536;2024-03-07T03:58:37;4.18;;;2.95;;
54841;SDS011;40741;45.002;7.536;2024-03-07T04:01:03;5.93;;;3.65;;
54841;SDS011;40741;45.002;7.536;2024-03-07T04:03:30;5.90;;;3.47;;
54841;SDS011;40741;45.002;7.536;2024-03-07T04:05:57;5.20;;;3.47;;
54841;SDS011;40741;45.002;7.536;2024-03-07T04:08:23;6.28;;;3.58;;
54841;SDS011;40741;45.002;7.536;2024-03-07T04:10:48;5.47;;;3.50;;
54841;SDS011;40741;45.002;7.536;2024-03-07T04:13:14;6.35;;;3.28;;
54841;SDS011;40741;45.002;7.536;2024-03-07T04:15:40;6.80;;;3.90;;
54841;SDS011;40741;45.002;7.536;2024-03-07T04:18:06;6.80;;;3.47;;
54841;SDS011;40741;45.002;7.536;2024-03-07T04:20:32;4.68;;;2.78;;
54841;SDS011;40741;45.002;7.536;2024-03-07T04:22:58;5.10;;;3.00;;
54841;SDS011;40741;45.002;7.536;2024-03-07T04:25:24;5.07;;;2.83;;
54841;SDS011;40741;45.002;7.536;2024-03-07T04:27:50;7.50;;;2.60;;
54841;SDS011;40741;45.002;7.536;2024-03-07T04:30:16;3.72;;;2.40;;
54841;SDS011;40741;45.002;7.536;2024-03-07T04:32:42;2.60;;;1.67;;
54841;SDS011;40741;45.002;7.536;2024-03-07T04:35:08;4.22;;;1.85;;
54841;SDS011;40741;45.002;7.536;2024-03-07T04:37:35;3.05;;;1.52;;
54841;SDS011;40741;45.002;7.536;2024-03-07T04:40:04;7.65;;;3.42;;
54841;SDS011;40741;45.002;7.536;2024-03-07T04:42:40;3.03;;;1.63;;
54841;SDS011;40741;45.002;7.536;2024-03-07T04:45:06;1.92;;;1.40;;
54841;SDS011;40741;45.002;7.536;2024-03-07T04:47:32;2.38;;;1.20;;
54841;SDS011;40741;45.002;7.536;2024-03-07T04:49:58;1.65;;;0.82;;
54841;SDS011;40741;45.002;7.536;2024-03-07T04:52:24;1.63;;;1.00;;
54841;SDS011;40741;45.002;7.536;2024-03-07T04:54:50;1.85;;;1.00;;
54841;SDS011;40741;45.002;7.536;2024-03-07T04:57:16;2.75;;;1.17;;
54841;SDS011;40741;45.002;7.536;2024-03-07T04:59:44;1.65;;;0.90;;
54841;SDS011;40741;45.002;7.536;2024-03-07T05:02:10;1.00;;;0.90;;
54841;SDS011;40741;45.002;7.536;2024-03-07T05:04:36;1.00;;;0.90;;
54841;SDS011;40741;45.002;7.536;2024-03-07T05:07:02;1.55;;;1.13;;
54841;SDS011;40741;45.002;7.536;2024-03-07T05:09:28;1.77;;;0.85;;
54841;SDS011;40741;45.002;7.536;2024-03-07T05:12:04;1.77;;;1.08;;
54841;SDS011;40741;45.002;7.536;2024-03-07T05:14:30;2.28;;;1.60;;
54841;SDS011;40741;45.002;7.536;2024-03-07T05:16:56;2.20;;;1.15;;
54841;SDS011;40741;45.002;7.536;2024-03-07T05:19:33;1.60;;;1.30;;
54841;SDS011;40741;45.002;7.536;2024-03-07T05:21:59;1.80;;;1.20;;
54841;SDS011;40741;45.002;7.536;2024-03-07T05:24:25;2.80;;;0.95;;
54841;SDS011;40741;45.002;7.536;2024-03-07T05:26:51;2.05;;;1.20;;
54841;SDS011;40741;45.002;7.536;2024-03-07T05:29:18;2.28;;;1.00;;
54841;SDS011;40741;45.002;7.536;2024-03-07T05:31:44;1.50;;;1.10;;
54841;SDS011;40741;45.002;7.536;2024-03-07T05:34:16;0.88;;;0.80;;
54841;SDS011;40741;45.002;7.536;2024-03-07T05:36:45;1.25;;;0.90;;
54841;SDS011;40741;45.002;7.536;2024-03-07T05:39:12;2.17;;;0.90;;
54841;SDS011;40741;45.002;7.536;2024-03-07T05:41:43;3.47;;;1.50;;
54841;SDS011;40741;45.002;7.536;2024-03-07T05:44:13;1.15;;;1.00;;
54841;SDS011;40741;45.002;7.536;2024-03-07T05:46:40;1.38;;;1.10;;
54841;SDS011;40741;45.002;7.536;2024-03-07T05:49:10;3.60;;;1.33;;
54841;SDS011;40741;45.002;7.536;2024-03-07T05:51:36;3.72;;;1.50;;
54841;SDS011;40741;45.002;7.536;2024-03-07T05:54:02;2.10;;;1.30;;
54841;SDS011;40741;45.002;7.536;2024-03-07T05:56:32;3.80;;;1.35;;
54841;SDS011;40741;45.002;7.536;2024-03-07T05:59:04;2.05;;;1.25;;
54841;SDS011;40741;45.002;7.536;2024-03-07T06:01:32;2.80;;;1.20;;
54841;SDS011;40741;45.002;7.536;2024-03-07T06:03:59;1.85;;;1.00;;
54841;SDS011;40741;45.002;7.536;2024-03-07T06:06:25;2.50;;;1.40;;
54841;SDS011;40741;45.002;7.536;2024-03-07T06:08:52;3.60;;;1.50;;
54841;SDS011;40741;45.002;7.536;2024-03-07T06:11:18;2.65;;;1.25;;
54841;SDS011;40741;45.002;7.536;2024-03-07T06:13:46;5.07;;;1.33;;
54841;SDS011;40741;45.002;7.536;2024-03-07T06:16:12;2.45;;;1.50;;
54841;SDS011;40741;45.002;7.536;2024-03-07T06:18:39;4.10;;;1.65;;
54841;SDS011;40741;45.002;7.536;2024-03-07T06:21:05;5.78;;;2.00;;
54841;SDS011;40741;45.002;7.536;2024-03-07T06:23:31;7.05;;;1.63;;
54841;SDS011;40741;45.002;7.536;2024-03-07T06:25:58;2.47;;;1.40;;
54841;SDS011;40741;45.002;7.536;2024-03-07T06:28:25;3.78;;;1.70;;
54841;SDS011;40741;45.002;7.536;2024-03-07T06:30:53;3.03;;;1.55;;
54841;SDS011;40741;45.002;7.536;2024-03-07T06:33:20;3.80;;;1.88;;
54841;SDS011;40741;45.002;7.536;2024-03-07T06:35:47;6.95;;;1.67;;
54841;SDS011;40741;45.002;7.536;2024-03-07T06:38:13;4.63;;;1.50;;
54841;SDS011;40741;45.002;7.536;2024-03-07T06:40:39;4.22;;;2.10;;
54841;SDS011;40741;45.002;7.536;2024-03-07T06:43:07;2.55;;;1.67;;
54841;SDS011;40741;45.002;7.536;2024-03-07T06:45:35;4.00;;;1.90;;
54841;SDS011;40741;45.002;7.536;2024-03-07T06:48:02;3.00;;;1.60;;
54841;SDS011;40741;45.002;7.536;2024-03-07T06:50:28;3.97;;;1.88;;
54841;SDS011;40741;45.002;7.536;2024-03-07T06:52:54;2.55;;;1.80;;
54841;SDS011;40741;45.002;7.536;2024-03-07T06:55:21;2.63;;;1.75;;
54841;SDS011;40741;45.002;7.536;2024-03-07T06:57:47;3.33;;;1.75;;
54841;SDS011;40741;45.002;7.536;2024-03-07T07:00:13;5.60;;;1.73;;
54841;SDS011;40741;45.002;7.536;2024-03-07T07:02:44;5.38;;;2.15;;
54841;SDS011;40741;45.002;7.536;2024-03-07T07:05:10;4.75;;;1.70;;
54841;SDS011;40741;45.002;7.536;2024-03-07T07:07:38;6.93;;;2.10;;
54841;SDS011;40741;45.002;7.536;2024-03-07T07:10:06;6.18;;;2.97;;
54841;SDS011;40741;45.002;7.536;2024-03-07T07:12:35;5.60;;;1.83;;
54841;SDS011;40741;45.002;7.536;2024-03-07T07:15:01;8.63;;;2.50;;
54841;SDS011;40741;45.002;7.536;2024-03-07T07:17:28;8.00;;;2.67;;
54841;SDS011;40741;45.002;7.536;2024-03-07T07:19:55;6.07;;;3.25;;
54841;SDS011;40741;45.002;7.536;2024-03-07T07:22:21;5.88;;;3.03;;
54841;SDS011;40741;45.002;7.536;2024-03-07T07:24:47;4.38;;;2.70;;
54841;SDS011;40741;45.002;7.536;2024-03-07T07:27:13;13.70;;;3.10;;
54841;SDS011;40741;45.002;7.536;2024-03-07T07:29:39;5.18;;;2.97;;
54841;SDS011;40741;45.002;7.536;2024-03-07T07:32:06;6.57;;;2.88;;
54841;SDS011;40741;45.002;7.536;2024-03-07T07:34:32;8.40;;;2.97;;
54841;SDS011;40741;45.002;7.536;2024-03-07T07:36:59;6.20;;;2.80;;
54841;SDS011;40741;45.002;7.536;2024-03-07T07:39:25;5.15;;;2.97;;
54841;SDS011;40741;45.002;7.536;2024-03-07T07:41:51;7.30;;;2.92;;
54841;SDS011;40741;45.002;7.536;2024-03-07T07:44:17;7.07;;;3.90;;
54841;SDS011;40741;45.002;7.536;2024-03-07T07:46:43;8.93;;;4.53;;
54841;SDS011;40741;45.002;7.536;2024-03-07T07:49:09;7.13;;;3.67;;
54841;SDS011;40741;45.002;7.536;2024-03-07T07:51:35;8.98;;;3.75;;
54841;SDS011;40741;45.002;7.536;2024-03-07T07:54:01;11.80;;;5.90;;
54841;SDS011;40741;45.002;7.536;2024-03-07T07:56:27;10.13;;;5.50;;
54841;SDS011;40741;45.002;7.536;2024-03-07T07:58:53;8.30;;;5.32;;
54841;SDS011;40741;45.002;7.536;2024-03-07T08:01:19;10.57;;;5.13;;
54841;SDS011;40741;45.002;7.536;2024-03-07T08:03:45;8.30;;;5.30;;
54841;SDS011;40741;45.002;7.536;2024-03-07T08:06:11;13.07;;;5.70;;
54841;SDS011;40741;45.002;7.536;2024-03-07T08:08:37;8.52;;;5.43;;
54841;SDS011;40741;45.002;7.536;2024-03-07T08:11:04;11.35;;;5.88;;
54841;SDS011;40741;45.002;7.536;2024-03-07T08:13:30;10.70;;;4.60;;
54841;SDS011;40741;45.002;7.536;2024-03-07T08:15:56;9.30;;;5.65;;
54841;SDS011;40741;45.002;7.536;2024-03-07T08:18:22;8.73;;;4.93;;
54841;SDS011;40741;45.002;7.536;2024-03-07T08:20:48;5.93;;;3.65;;
54841;SDS011;40741;45.002;7.536;2024-03-07T08:23:14;8.75;;;3.97;;
54841;SDS011;40741;45.002;7.536;2024-03-07T08:25:40;5.18;;;3.38;;
54841;SDS011;40741;45.002;7.536;2024-03-07T08:28:06;7.78;;;2.60;;
54841;SDS011;40741;45.002;7.536;2024-03-07T08:30:33;3.80;;;2.90;;
54841;SDS011;40741;45.002;7.536;2024-03-07T08:33:00;6.80;;;2.13;;
54841;SDS011;40741;45.002;7.536;2024-03-07T08:35:30;3.88;;;1.88;;
54841;SDS011;40741;45.002;7.536;2024-03-07T08:37:56;5.45;;;2.47;;
54841;SDS011;40741;45.002;7.536;2024-03-07T08:40:28;4.20;;;2.20;;
54841;SDS011;40741;45.002;7.536;2024-03-07T08:43:00;6.10;;;2.33;;
54841;SDS011;40741;45.002;7.536;2024-03-07T08:45:27;5.68;;;2.47;;
54841;SDS011;40741;45.002;7.536;2024-03-07T08:47:53;3.10;;;2.40;;
54841;SDS011;40741;45.002;7.536;2024-03-07T08:50:19;6.65;;;2.70;;
54841;SDS011;40741;45.002;7.536;2024-03-07T08:52:46;3.85;;;2.15;;
54841;SDS011;40741;45.002;7.536;2024-03-07T08:55:13;4.95;;;2.95;;
54841;SDS011;40741;45.002;7.536;2024-03-07T08:57:40;4.15;;;2.70;;
54841;SDS011;40741;45.002;7.536;2024-03-07T09:00:06;4.18;;;2.50;;
54841;SDS011;40741;45.002;7.536;2024-03-07T09:02:52;3.60;;;2.35;;
54841;SDS011;40741;45.002;7.536;2024-03-07T09:05:18;8.13;;;2.42;;
54841;SDS011;40741;45.002;7.536;2024-03-07T09:07:45;5.00;;;2.55;;
54841;SDS011;40741;45.002;7.536;2024-03-07T09:10:12;6.10;;;2.40;;
54841;SDS011;40741;45.002;7.536;2024-03-07T09:12:39;5.53;;;2.45;;
54841;SDS011;40741;45.002;7.536;2024-03-07T09:15:05;4.85;;;3.08;;
54841;SDS011;40741;45.002;7.536;2024-03-07T09:17:32;5.10;;;2.60;;
54841;SDS011;40741;45.002;7.536;2024-03-07T09:19:58;1.95;;;1.40;;
54841;SDS011;40741;45.002;7.536;2024-03-07T09:22:24;2.70;;;2.10;;
54841;SDS011;40741;45.002;7.536;2024-03-07T09:24:50;3.60;;;2.20;;
54841;SDS011;40741;45.002;7.536;2024-03-07T09:27:16;3.88;;;2.08;;
54841;SDS011;40741;45.002;7.536;2024-03-07T09:29:45;5.65;;;2.25;;
54841;SDS011;40741;45.002;7.536;2024-03-07T09:32:14;3.67;;;2.03;;
54841;SDS011;40741;45.002;7.536;2024-03-07T09:34:40;3.80;;;1.65;;
54841;SDS011;40741;45.002;7.536;2024-03-07T09:37:06;1.33;;;1.00;;
54841;SDS011;40741;45.002;7.536;2024-03-07T09:39:32;2.42;;;1.30;;
54841;SDS011;40741;45.002;7.536;2024-03-07T09:42:00;3.80;;;1.92;;
54841;SDS011;40741;45.002;7.536;2024-03-07T09:44:26;2.63;;;1.48;;
54841;SDS011;40741;45.002;7.536;2024-03-07T09:46:57;4.40;;;2.33;;
54841;SDS011;40741;45.002;7.536;2024-03-07T09:49:24;6.50;;;3.42;;
54841;SDS011;40741;45.002;7.536;2024-03-07T09:51:51;6.43;;;3.15;;
54841;SDS011;40741;45.002;7.536;2024-03-07T09:54:19;5.90;;;2.95;;
54841;SDS011;40741;45.002;7.536;2024-03-07T09:56:45;3.75;;;2.25;;
54841;SDS011;40741;45.002;7.536;2024-03-07T09:59:14;5.40;;;1.42;;
54841;SDS011;40741;45.002;7.536;2024-03-07T10:01:41;2.78;;;1.38;;
54841;SDS011;40741;45.002;7.536;2024-03-07T10:04:08;3.95;;;2.78;;
54841;SDS011;40741;45.002;7.536;2024-03-07T10:06:39;2.97;;;1.35;;
54841;SDS011;40741;45.002;7.536;2024-03-07T10:09:08;4.70;;;2.60;;
54841;SDS011;40741;45.002;7.536;2024-03-07T10:11:38;2.30;;;1.38;;
54841;SDS011;40741;45.002;7.536;2024-03-07T10:14:04;2.17;;;1.10;;
54841;SDS011;40741;45.002;7.536;2024-03-07T10:16:30;5.18;;;2.20;;
54841;SDS011;40741;45.002;7.536;2024-03-07T10:18:57;5.70;;;2.60;;
54841;SDS011;40741;45.002;7.536;2024-03-07T10:21:25;3.30;;;1.15;;
54841;SDS011;40741;45.002;7.536;2024-03-07T10:24:03;6.88;;;2.55;;
54841;SDS011;40741;45.002;7.536;2024-03-07T10:26:32;2.05;;;1.48;;
54841;SDS011;40741;45.002;7.536;2024-03-07T10:28:59;3.58;;;2.80;;
54841;SDS011;40741;45.002;7.536;2024-03-07T10:31:31;1.58;;;1.00;;
54841;SDS011;40741;45.002;7.536;2024-03-07T10:33:59;2.22;;;2.03;;
54841;SDS011;40741;45.002;7.536;2024-03-07T10:36:25;2.83;;;1.15;;
54841;SDS011;40741;45.002;7.536;2024-03-07T10:38:51;3.78;;;1.75;;
54841;SDS011;40741;45.002;7.536;2024-03-07T10:41:20;5.68;;;2.20;;
54841;SDS011;40741;45.002;7.536;2024-03-07T10:43:47;2.50;;;1.60;;
54841;SDS011;40741;45.002;7.536;2024-03-07T10:46:15;3.65;;;2.55;;
54841;SDS011;40741;45.002;7.536;2024-03-07T10:48:43;2.80;;;1.98;;
54841;SDS011;40741;45.002;7.536;2024-03-07T10:51:21;3.88;;;2.50;;
54841;SDS011;40741;45.002;7.536;2024-03-07T11:01:32;6.10;;;2.03;;
54841;SDS011;40741;45.002;7.536;2024-03-07T11:04:01;2.45;;;0.90;;
54841;SDS011;40741;45.002;7.536;2024-03-07T11:06:30;1.52;;;0.80;;
54841;SDS011;40741;45.002;7.536;2024-03-07T11:08:59;2.55;;;0.98;;
54841;SDS011;40741;45.002;7.536;2024-03-07T11:11:25;2.97;;;1.52;;
54841;SDS011;40741;45.002;7.536;2024-03-07T11:13:52;2.75;;;1.40;;
54841;SDS011;40741;45.002;7.536;2024-03-07T11:16:19;4.10;;;2.03;;
54841;SDS011;40741;45.002;7.536;2024-03-07T11:21:40;3.65;;;2.00;;
54841;SDS011;40741;45.002;7.536;2024-03-07T11:24:06;2.90;;;2.00;;
54841;SDS011;40741;45.002;7.536;2024-03-07T11:26:34;1.85;;;0.90;;
54841;SDS011;40741;45.002;7.536;2024-03-07T11:29:00;2.40;;;0.90;;
54841;SDS011;40741;45.002;7.536;2024-03-07T11:31:26;2.92;;;2.10;;
54841;SDS011;40741;45.002;7.536;2024-03-07T11:36:43;3.95;;;2.05;;
54841;SDS011;40741;45.002;7.536;2024-03-07T11:41:56;3.35;;;2.13;;
54841;SDS011;40741;45.002;7.536;2024-03-07T11:44:22;1.77;;;0.85;;
54841;SDS011;40741;45.002;7.536;2024-03-07T11:46:48;2.13;;;0.90;;
54841;SDS011;40741;45.002;7.536;2024-03-07T11:49:14;3.35;;;2.03;;
54841;SDS011;40741;45.002;7.536;2024-03-07T11:51:40;4.18;;;2.10;;
54841;SDS011;40741;45.002;7.536;2024-03-07T11:54:06;2.03;;;0.90;;
54841;SDS011;40741;45.002;7.536;2024-03-07T11:56:32;3.42;;;1.90;;
54841;SDS011;40741;45.002;7.536;2024-03-07T11:58:58;3.30;;;1.55;;
54841;SDS011;40741;45.002;7.536;2024-03-07T12:01:27;1.25;;;0.60;;
54841;SDS011;40741;45.002;7.536;2024-03-07T12:03:55;4.35;;;2.20;;
54841;SDS011;40741;45.002;7.536;2024-03-07T12:06:20;2.70;;;0.80;;
54841;SDS011;40741;45.002;7.536;2024-03-07T12:08:47;1.10;;;0.65;;
54841;SDS011;40741;45.002;7.536;2024-03-07T12:11:14;1.80;;;1.48;;
54841;SDS011;40741;45.002;7.536;2024-03-07T12:13:41;3.13;;;1.98;;
54841;SDS011;40741;45.002;7.536;2024-03-07T12:16:07;3.72;;;1.65;;
54841;SDS011;40741;45.002;7.536;2024-03-07T12:18:33;3.60;;;2.35;;
54841;SDS011;40741;45.002;7.536;2024-03-07T12:21:00;2.72;;;2.22;;
54841;SDS011;40741;45.002;7.536;2024-03-07T12:23:31;2.00;;;0.98;;
54841;SDS011;40741;45.002;7.536;2024-03-07T12:25:59;1.83;;;1.08;;
54841;SDS011;40741;45.002;7.536;2024-03-07T12:28:26;4.10;;;2.38;;
54841;SDS011;40741;45.002;7.536;2024-03-07T12:30:53;3.97;;;1.77;;
54841;SDS011;40741;45.002;7.536;2024-03-07T12:33:20;2.47;;;1.60;;
54841;SDS011;40741;45.002;7.536;2024-03-07T12:35:48;2.72;;;1.10;;
54841;SDS011;40741;45.002;7.536;2024-03-07T12:38:18;3.92;;;2.05;;
54841;SDS011;40741;45.002;7.536;2024-03-07T12:40:44;2.90;;;2.30;;
54841;SDS011;40741;45.002;7.536;2024-03-07T12:43:19;3.83;;;2.20;;
54841;SDS011;40741;45.002;7.536;2024-03-07T12:45:49;4.95;;;2.40;;
54841;SDS011;40741;45.002;7.536;2024-03-07T12:48:16;2.40;;;1.30;;
54841;SDS011;40741;45.002;7.536;2024-03-07T12:50:44;2.70;;;1.70;;
54841;SDS011;40741;45.002;7.536;2024-03-07T12:53:11;4.90;;;2.22;;
54841;SDS011;40741;45.002;7.536;2024-03-07T12:55:40;4.15;;;2.70;;
54841;SDS011;40741;45.002;7.536;2024-03-07T12:58:07;4.15;;;2.55;;
54841;SDS011;40741;45.002;7.536;2024-03-07T13:00:34;3.05;;;2.15;;
54841;SDS011;40741;45.002;7.536;2024-03-07T13:03:00;2.55;;;1.70;;
54841;SDS011;40741;45.002;7.536;2024-03-07T13:05:26;2.25;;;1.25;;
54841;SDS011;40741;45.002;7.536;2024-03-07T13:07:52;1.55;;;1.05;;
54841;SDS011;40741;45.002;7.536;2024-03-07T13:10:18;3.90;;;1.92;;
54841;SDS011;40741;45.002;7.536;2024-03-07T13:12:45;4.13;;;1.83;;
54841;SDS011;40741;45.002;7.536;2024-03-07T13:15:14;2.80;;;2.38;;
54841;SDS011;40741;45.002;7.536;2024-03-07T13:17:40;1.60;;;0.85;;
54841;SDS011;40741;45.002;7.536;2024-03-07T13:20:09;1.98;;;0.77;;
54841;SDS011;40741;45.002;7.536;2024-03-07T13:22:42;3.55;;;1.80;;
54841;SDS011;40741;45.002;7.536;2024-03-07T13:25:12;1.50;;;0.70;;
54841;SDS011;40741;45.002;7.536;2024-03-07T13:27:40;1.83;;;1.27;;
54841;SDS011;40741;45.002;7.536;2024-03-07T13:30:08;1.85;;;1.30;;
54841;SDS011;40741;45.002;7.536;2024-03-07T13:32:38;1.85;;;1.10;;
54841;SDS011;40741;45.002;7.536;2024-03-07T13:35:04;2.13;;;1.30;;
54841;SDS011;40741;45.002;7.536;2024-03-07T13:37:36;2.03;;;1.30;;
54841;SDS011;40741;45.002;7.536;2024-03-07T13:40:02;4.53;;;1.58;;
54841;SDS011;40741;45.002;7.536;2024-03-07T13:42:47;4.75;;;1.67;;
54841;SDS011;40741;45.002;7.536;2024-03-07T13:45:13;2.65;;;1.48;;
54841;SDS011;40741;45.002;7.536;2024-03-07T13:47:39;2.00;;;1.10;;
54841;SDS011;40741;45.002;7.536;2024-03-07T13:50:07;1.55;;;1.00;;
54841;SDS011;40741;45.002;7.536;2024-03-07T13:52:36;1.50;;;0.90;;
54841;SDS011;40741;45.002;7.536;2024-03-07T13:55:09;1.83;;;1.02;;
54841;SDS011;40741;45.002;7.536;2024-03-07T13:57:40;2.67;;;1.05;;
54841;SDS011;40741;45.002;7.536;2024-03-07T14:00:27;2.33;;;1.42;;
54841;SDS011;40741;45.002;7.536;2024-03-07T14:05:46;4.10;;;0.82;;
54841;SDS011;40741;45.002;7.536;2024-03-07T14:08:35;3.58;;;1.35;;
54841;SDS011;40741;45.002;7.536;2024-03-07T14:22:01;2.42;;;1.17;;
54841;SDS011;40741;45.002;7.536;2024-03-07T14:27:15;2.33;;;1.00;;
54841;SDS011;40741;45.002;7.536;2024-03-07T14:32:16;1.33;;;0.90;;
54841;SDS011;40741;45.002;7.536;2024-03-07T14:37:17;2.88;;;0.80;;
54841;SDS011;40741;45.002;7.536;2024-03-07T14:39:46;1.50;;;0.82;;
54841;SDS011;40741;45.002;7.536;2024-03-07T14:42:14;1.98;;;0.60;;
54841;SDS011;40741;45.002;7.536;2024-03-07T14:44:42;1.30;;;0.60;;
54841;SDS011;40741;45.002;7.536;2024-03-07T14:47:08;0.60;;;0.52;;
54841;SDS011;40741;45.002;7.536;2024-03-07T14:49:39;1.10;;;0.60;;
54841;SDS011;40741;45.002;7.536;2024-03-07T14:52:05;1.50;;;0.63;;
54841;SDS011;40741;45.002;7.536;2024-03-07T14:54:40;0.90;;;0.75;;
54841;SDS011;40741;45.002;7.536;2024-03-07T14:57:07;0.68;;;0.40;;
54841;SDS011;40741;45.002;7.536;2024-03-07T14:59:36;1.25;;;0.88;;
54841;SDS011;40741;45.002;7.536;2024-03-07T15:02:03;2.20;;;0.70;;
54841;SDS011;40741;45.002;7.536;2024-03-07T15:04:29;1.27;;;0.73;;
54841;SDS011;40741;45.002;7.536;2024-03-07T15:06:57;0.55;;;0.55;;
54841;SDS011;40741;45.002;7.536;2024-03-07T15:09:23;0.80;;;0.60;;
54841;SDS011;40741;45.002;7.536;2024-03-07T15:11:49;2.03;;;0.82;;
54841;SDS011;40741;45.002;7.536;2024-03-07T15:14:15;0.47;;;0.47;;
54841;SDS011;40741;45.002;7.536;2024-03-07T15:16:41;0.93;;;0.60;;
54841;SDS011;40741;45.002;7.536;2024-03-07T15:19:08;0.50;;;0.40;;
54841;SDS011;40741;45.002;7.536;2024-03-07T15:21:35;0.95;;;0.70;;
54841;SDS011;40741;45.002;7.536;2024-03-07T15:24:02;1.90;;;0.68;;
54841;SDS011;40741;45.002;7.536;2024-03-07T15:26:29;1.15;;;0.50;;